Time;durP1;ratioP1;P1;durP2;ratioP2;P2;SDS_P1;SDS_P2;PMS_P1;PMS_P2;Temp;Humidity;BMP_temperature;BMP_pressure;BME280_temperature;BME280_humidity;BME280_pressure;Samples;Min_cycle;Max_cycle;Signal;HPM_P1;HPM_P2
2023/02/19 00:01:42;;;;;;;1.80;0.93;;;;;;;;;;6195257;28;20299;-80
2023/02/19 00:04:46;;;;;;;0.80;0.80;;;;;;;;;;6194871;28;20385;-79
2023/02/19 00:07:53;;;;;;;0.60;0.60;;;;;;;;;;6195989;28;20411;-79
2023/02/19 00:11:02;;;;;;;1.00;0.90;;;;;;;;;;6199601;28;20302;-78
2023/02/19 00:14:07;;;;;;;0.77;0.77;;;;;;;;;;6195020;28;20295;-79
2023/02/19 00:17:12;;;;;;;0.80;0.80;;;;;;;;;;6195402;28;20297;-79
2023/02/19 00:20:18;;;;;;;0.70;0.70;;;;;;;;;;6194835;28;20305;-77
2023/02/19 00:23:25;;;;;;;4.07;0.70;;;;;;;;;;6193418;28;20296;-79
2023/02/19 00:26:31;;;;;;;0.70;0.70;;;;;;;;;;6194638;28;20297;-78
2023/02/19 00:29:36;;;;;;;1.53;0.70;;;;;;;;;;6193584;28;20297;-80
2023/02/19 00:32:42;;;;;;;0.80;0.80;;;;;;;;;;6193497;28;20272;-79
2023/02/19 00:35:48;;;;;;;0.80;0.80;;;;;;;;;;6193147;28;20297;-77
2023/02/19 00:38:57;;;;;;;1.13;0.70;;;;;;;;;;6194497;28;20434;-78
2023/02/19 00:42:03;;;;;;;0.80;0.80;;;;;;;;;;6193458;28;20292;-78
2023/02/19 00:45:10;;;;;;;1.00;0.93;;;;;;;;;;6194419;28;20301;-78
2023/02/19 00:48:16;;;;;;;1.03;0.73;;;;;;;;;;6195095;28;20293;-79
2023/02/19 00:51:22;;;;;;;0.60;0.60;;;;;;;;;;6194609;28;20512;-78
2023/02/19 00:54:30;;;;;;;0.77;0.77;;;;;;;;;;6193216;28;20374;-77
2023/02/19 00:57:36;;;;;;;1.30;0.70;;;;;;;;;;6193223;28;20297;-79
2023/02/19 01:00:41;;;;;;;0.80;0.80;;;;;;;;;;6194500;28;20309;-79
2023/02/19 01:03:46;;;;;;;0.60;0.60;;;;;;;;;;6208459;28;20325;-79
2023/02/19 01:06:51;;;;;;;0.70;0.70;;;;;;;;;;6194700;28;20297;-78
2023/02/19 01:09:58;;;;;;;1.23;1.03;;;;;;;;;;6188558;28;20327;-79
2023/02/19 01:13:03;;;;;;;0.77;0.70;;;;;;;;;;6210624;28;20403;-78
2023/02/19 01:16:13;;;;;;;0.60;0.60;;;;;;;;;;6190402;28;20297;-77
2023/02/19 01:19:18;;;;;;;2.27;1.00;;;;;;;;;;6190084;28;20328;-78
2023/02/19 01:22:23;;;;;;;1.07;0.90;;;;;;;;;;6189550;28;20293;-78
2023/02/19 01:25:30;;;;;;;3.83;0.83;;;;;;;;;;6189625;28;20456;-78
2023/02/19 01:28:36;;;;;;;1.40;0.60;;;;;;;;;;6172836;28;20301;-78
2023/02/19 01:31:42;;;;;;;0.60;0.60;;;;;;;;;;6188936;28;20300;-77
2023/02/19 01:34:47;;;;;;;0.70;0.70;;;;;;;;;;6204665;28;20308;-77
2023/02/19 01:37:52;;;;;;;0.87;0.87;;;;;;;;;;6188978;28;20607;-77
2023/02/19 01:41:01;;;;;;;1.13;0.60;;;;;;;;;;6204397;28;20496;-78
2023/02/19 01:44:08;;;;;;;0.60;0.60;;;;;;;;;;6203983;28;20295;-79
2023/02/19 01:47:13;;;;;;;0.60;0.60;;;;;;;;;;6189712;28;20301;-77
2023/02/19 01:50:18;;;;;;;0.97;0.83;;;;;;;;;;6189553;28;20292;-78
2023/02/19 01:53:26;;;;;;;1.43;0.90;;;;;;;;;;6188729;28;20300;-78
2023/02/19 01:56:34;;;;;;;0.90;0.73;;;;;;;;;;6204194;28;20293;-77
2023/02/19 01:59:43;;;;;;;1.43;0.73;;;;;;;;;;6162551;28;20304;-77
2023/02/19 02:02:52;;;;;;;0.60;0.60;;;;;;;;;;6218613;23;20316;-81
2023/02/19 02:06:01;;;;;;;0.70;0.70;;;;;;;;;;6188399;28;20301;-82
2023/02/19 02:12:31;;;;;;;0.60;0.60;;;;;;;;;;6189287;28;20298;-82
2023/02/19 02:15:45;;;;;;;1.90;0.80;;;;;;;;;;6190803;28;20312;-82
2023/02/19 02:18:58;;;;;;;0.80;0.80;;;;;;;;;;6188438;28;20301;-83
2023/02/19 02:22:11;;;;;;;0.83;0.63;;;;;;;;;;6204424;28;20498;-82
2023/02/19 02:25:44;;;;;;;0.70;0.70;;;;;;;;;;6188723;28;20303;-83
2023/02/19 02:29:21;;;;;;;1.10;0.97;;;;;;;;;;6202189;28;20300;-82
2023/02/19 02:32:33;;;;;;;2.10;0.80;;;;;;;;;;6188230;28;20300;-81
2023/02/19 02:35:42;;;;;;;0.80;0.80;;;;;;;;;;6188382;28;20301;-82
2023/02/19 02:38:49;;;;;;;0.80;0.57;;;;;;;;;;6167193;28;20297;-82
2023/02/19 02:45:35;;;;;;;0.70;0.70;;;;;;;;;;6163410;28;20294;-83
2023/02/19 02:48:54;;;;;;;0.70;0.70;;;;;;;;;;6163941;28;20298;-81
2023/02/19 02:55:01;;;;;;;0.70;0.70;;;;;;;;;;6164398;28;20384;-82
2023/02/19 02:55:25;;;;;;;1.70;1.07;;;;;;;;;;6163946;28;20302;-82
2023/02/19 02:58:30;;;;;;;0.80;0.80;;;;;;;;;;6164139;28;20296;-81
2023/02/19 03:08:49;;;;;;;0.73;0.73;;;;;;;;;;6117768;28;20306;-81
2023/02/19 03:22:12;;;;;;;0.60;0.60;;;;;;;;;;6226725;28;20256;-81
2023/02/19 03:32:12;;;;;;;0.63;0.60;;;;;;;;;;6194748;28;20548;-82
2023/02/19 03:35:19;;;;;;;0.73;0.73;;;;;;;;;;6227365;28;20299;-82
2023/02/19 03:38:30;;;;;;;0.70;0.70;;;;;;;;;;6212127;28;20290;-81
2023/02/19 03:41:43;;;;;;;1.17;0.80;;;;;;;;;;6211019;28;20294;-79
2023/02/19 03:44:59;;;;;;;0.73;0.73;;;;;;;;;;6211068;28;20307;-81
2023/02/19 03:48:22;;;;;;;0.80;0.80;;;;;;;;;;6227730;28;20299;-81
2023/02/19 03:51:32;;;;;;;0.90;0.70;;;;;;;;;;6210665;28;20294;-81
2023/02/19 03:54:46;;;;;;;0.90;0.80;;;;;;;;;;6212070;28;20287;-82
2023/02/19 03:57:56;;;;;;;1.60;0.80;;;;;;;;;;6195304;28;20289;-82
2023/02/19 04:01:05;;;;;;;1.60;0.90;;;;;;;;;;6186243;28;20639;-81
2023/02/19 04:04:17;;;;;;;0.70;0.70;;;;;;;;;;6196746;28;20307;-81
2023/02/19 04:07:22;;;;;;;0.70;0.70;;;;;;;;;;6226017;28;20575;-82
2023/02/19 04:10:30;;;;;;;0.90;0.90;;;;;;;;;;6208135;28;20299;-81
2023/02/19 04:13:41;;;;;;;0.70;0.70;;;;;;;;;;6225672;28;20294;-82
2023/02/19 04:16:54;;;;;;;0.63;0.60;;;;;;;;;;6211377;28;20364;-81
2023/02/19 04:20:00;;;;;;;0.80;0.80;;;;;;;;;;6196804;28;20308;-82
2023/02/19 04:23:06;;;;;;;1.60;0.80;;;;;;;;;;6186324;28;20305;-82
2023/02/19 04:26:14;;;;;;;0.70;0.70;;;;;;;;;;6187125;28;20294;-82
2023/02/19 04:29:19;;;;;;;0.60;0.60;;;;;;;;;;6187114;28;20324;-82
2023/02/19 04:32:25;;;;;;;0.60;0.60;;;;;;;;;;6186497;28;20303;-82
2023/02/19 04:35:30;;;;;;;0.77;0.77;;;;;;;;;;6187619;28;20290;-82
2023/02/19 04:38:36;;;;;;;1.60;0.80;;;;;;;;;;6209587;28;20296;-80
2023/02/19 04:41:44;;;;;;;0.73;0.73;;;;;;;;;;6210533;28;20292;-82
2023/02/19 04:44:50;;;;;;;2.57;0.70;;;;;;;;;;6212870;28;20304;-82
2023/02/19 04:47:57;;;;;;;0.70;0.70;;;;;;;;;;6214605;28;20422;-81
2023/02/19 04:51:06;;;;;;;0.73;0.70;;;;;;;;;;6216131;28;20463;-82
2023/02/19 04:54:12;;;;;;;0.80;0.80;;;;;;;;;;6214973;28;20546;-82
2023/02/19 04:57:18;;;;;;;0.70;0.70;;;;;;;;;;6214883;28;20291;-82
2023/02/19 05:00:24;;;;;;;0.60;0.60;;;;;;;;;;6214966;28;20293;-81
2023/02/19 05:03:30;;;;;;;0.60;0.60;;;;;;;;;;6213988;28;20294;-82
2023/02/19 05:06:35;;;;;;;0.60;0.60;;;;;;;;;;6213509;28;20286;-81
2023/02/19 05:09:41;;;;;;;1.97;0.70;;;;;;;;;;6213235;28;20566;-81
2023/02/19 05:12:48;;;;;;;0.67;0.60;;;;;;;;;;6217443;28;20316;-81
2023/02/19 05:15:57;;;;;;;0.70;0.70;;;;;;;;;;6218709;28;20406;-81
2023/02/19 05:19:03;;;;;;;0.67;0.63;;;;;;;;;;6218337;28;20296;-81
2023/02/19 05:22:08;;;;;;;0.70;0.70;;;;;;;;;;6215920;28;20316;-82
2023/02/19 05:25:16;;;;;;;0.87;0.83;;;;;;;;;;6213250;28;20596;-82
2023/02/19 05:28:33;;;;;;;0.70;0.67;;;;;;;;;;6214647;28;20296;-82
2023/02/19 05:31:38;;;;;;;0.70;0.70;;;;;;;;;;6214763;28;20457;-82
2023/02/19 05:34:43;;;;;;;0.60;0.60;;;;;;;;;;6214291;28;20323;-82
2023/02/19 05:37:48;;;;;;;0.70;0.70;;;;;;;;;;6214041;28;20583;-82
2023/02/19 05:40:53;;;;;;;0.70;0.70;;;;;;;;;;6213297;28;20559;-81
2023/02/19 05:44:00;;;;;;;1.80;0.87;;;;;;;;;;6214595;28;20295;-81
2023/02/19 05:47:07;;;;;;;0.70;0.70;;;;;;;;;;6214229;28;20300;-81
2023/02/19 05:50:12;;;;;;;0.87;0.70;;;;;;;;;;6215151;28;20296;-81
2023/02/19 05:53:19;;;;;;;0.60;0.60;;;;;;;;;;6213982;28;20294;-82
2023/02/19 05:56:32;;;;;;;0.93;0.93;;;;;;;;;;6213703;28;20290;-81
2023/02/19 05:59:38;;;;;;;0.70;0.70;;;;;;;;;;6213163;28;20298;-81
2023/02/19 06:02:46;;;;;;;1.93;0.70;;;;;;;;;;6211750;28;20311;-81
2023/02/19 06:05:52;;;;;;;1.07;0.80;;;;;;;;;;6212482;28;20292;-81
2023/02/19 06:08:58;;;;;;;0.90;0.90;;;;;;;;;;6213393;28;20303;-80
2023/02/19 06:12:04;;;;;;;0.73;0.73;;;;;;;;;;6209953;28;20321;-82
2023/02/19 06:15:12;;;;;;;1.60;0.70;;;;;;;;;;6213803;28;20478;-83
2023/02/19 06:18:18;;;;;;;0.80;0.80;;;;;;;;;;6213133;28;20319;-82
2023/02/19 06:21:23;;;;;;;0.80;0.80;;;;;;;;;;6213239;28;20308;-82
2023/02/19 06:24:28;;;;;;;0.70;0.70;;;;;;;;;;6228829;28;20299;-83
2023/02/19 06:27:34;;;;;;;1.30;0.90;;;;;;;;;;6212993;28;20576;-81
2023/02/19 06:30:40;;;;;;;0.70;0.70;;;;;;;;;;6213934;28;20287;-81
2023/02/19 06:33:46;;;;;;;1.90;0.70;;;;;;;;;;6227482;28;20292;-81
2023/02/19 06:36:51;;;;;;;0.80;0.80;;;;;;;;;;6211988;28;20370;-81
2023/02/19 06:39:57;;;;;;;1.63;0.70;;;;;;;;;;6212483;28;20487;-82
2023/02/19 06:43:02;;;;;;;1.63;0.90;;;;;;;;;;6213416;28;20303;-82
2023/02/19 06:46:11;;;;;;;0.60;0.60;;;;;;;;;;6197073;28;20319;-82
2023/02/19 06:49:16;;;;;;;0.83;0.70;;;;;;;;;;6213615;28;20629;-82
2023/02/19 06:52:23;;;;;;;2.27;0.73;;;;;;;;;;6213320;28;20294;-82
2023/02/19 06:55:29;;;;;;;1.97;0.77;;;;;;;;;;6213298;28;20296;-82
2023/02/19 06:58:34;;;;;;;0.70;0.70;;;;;;;;;;6212707;28;20311;-82
2023/02/19 07:01:41;;;;;;;0.70;0.70;;;;;;;;;;6212574;28;20299;-82
2023/02/19 07:04:46;;;;;;;0.90;0.90;;;;;;;;;;6212730;28;20293;-82
2023/02/19 07:07:52;;;;;;;2.00;0.70;;;;;;;;;;6211054;28;20601;-81
2023/02/19 07:10:58;;;;;;;1.87;0.70;;;;;;;;;;6209340;28;20291;-81
2023/02/19 07:14:06;;;;;;;0.70;0.70;;;;;;;;;;6212472;28;20327;-81
2023/02/19 07:17:14;;;;;;;1.60;0.67;;;;;;;;;;6213125;28;20291;-81
2023/02/19 07:20:20;;;;;;;0.63;0.63;;;;;;;;;;6212996;28;20403;-82
2023/02/19 07:23:29;;;;;;;0.67;0.67;;;;;;;;;;6212419;28;20307;-82
2023/02/19 07:26:36;;;;;;;0.70;0.70;;;;;;;;;;6213081;28;20294;-80
2023/02/19 07:29:42;;;;;;;0.60;0.60;;;;;;;;;;6212832;28;20296;-81
2023/02/19 07:32:51;;;;;;;0.90;0.90;;;;;;;;;;6211673;28;20282;-83
2023/02/19 07:35:58;;;;;;;4.80;0.80;;;;;;;;;;6211367;28;20292;-81
2023/02/19 07:39:03;;;;;;;1.13;0.60;;;;;;;;;;6212407;28;20461;-82
2023/02/19 07:42:11;;;;;;;1.43;0.80;;;;;;;;;;6212892;28;20302;-82
2023/02/19 07:45:17;;;;;;;1.00;0.70;;;;;;;;;;6211891;28;20295;-82
2023/02/19 07:48:24;;;;;;;1.57;0.87;;;;;;;;;;6210331;28;20582;-81
2023/02/19 07:51:31;;;;;;;1.07;0.90;;;;;;;;;;6212336;28;20327;-82
2023/02/19 07:54:36;;;;;;;4.67;0.83;;;;;;;;;;6211488;28;20307;-82
2023/02/19 07:57:46;;;;;;;1.30;0.90;;;;;;;;;;6211452;28;20295;-82
2023/02/19 08:00:51;;;;;;;0.77;0.77;;;;;;;;;;6212519;28;20300;-82
2023/02/19 08:03:59;;;;;;;1.03;0.80;;;;;;;;;;6210068;28;20310;-82
2023/02/19 08:07:04;;;;;;;1.00;1.00;;;;;;;;;;6211523;28;20318;-82
2023/02/19 08:13:34;;;;;;;0.93;0.80;;;;;;;;;;6211450;28;20291;-82
2023/02/19 08:16:39;;;;;;;0.83;0.83;;;;;;;;;;6211513;28;20462;-82
2023/02/19 08:19:49;;;;;;;2.17;0.90;;;;;;;;;;6229947;28;20294;-81
2023/02/19 08:22:57;;;;;;;1.27;0.80;;;;;;;;;;6216358;28;20320;-82
2023/02/19 08:26:02;;;;;;;0.80;0.80;;;;;;;;;;6217268;28;20303;-82
2023/02/19 08:29:07;;;;;;;1.00;1.00;;;;;;;;;;6212146;28;20396;-82
2023/02/19 08:32:14;;;;;;;1.03;1.03;;;;;;;;;;6192541;28;20297;-82
2023/02/19 08:35:23;;;;;;;0.90;0.90;;;;;;;;;;6192343;28;20593;-82
2023/02/19 08:38:36;;;;;;;1.33;1.10;;;;;;;;;;6192028;28;20291;-83
2023/02/19 08:41:42;;;;;;;1.10;0.70;;;;;;;;;;6189121;28;20283;-81
2023/02/19 08:44:48;;;;;;;1.13;1.03;;;;;;;;;;6191808;28;20305;-82
2023/02/19 08:47:53;;;;;;;0.77;0.77;;;;;;;;;;6191763;28;20309;-82
2023/02/19 08:51:03;;;;;;;2.57;0.90;;;;;;;;;;6192400;28;20295;-82
2023/02/19 08:54:08;;;;;;;2.57;0.90;;;;;;;;;;6191712;28;20297;-82
2023/02/19 08:57:13;;;;;;;1.63;0.80;;;;;;;;;;6192059;28;20288;-82
2023/02/19 09:00:20;;;;;;;0.87;0.87;;;;;;;;;;6192476;28;20291;-82
2023/02/19 09:03:25;;;;;;;1.00;1.00;;;;;;;;;;6192200;28;20298;-83
2023/02/19 09:06:32;;;;;;;2.53;1.00;;;;;;;;;;6193111;28;20301;-81
2023/02/19 09:09:38;;;;;;;1.20;1.20;;;;;;;;;;6208709;28;20299;-81
2023/02/19 09:12:43;;;;;;;2.77;2.10;;;;;;;;;;6193380;28;20297;-84
2023/02/19 09:15:49;;;;;;;10.63;5.50;;;;;;;;;;6192313;28;20303;-84
2023/02/19 09:18:56;;;;;;;1.33;1.30;;;;;;;;;;6209813;28;20305;-82
2023/02/19 09:22:06;;;;;;;1.43;1.33;;;;;;;;;;6195376;28;20309;-84
2023/02/19 09:25:14;;;;;;;3.97;3.50;;;;;;;;;;6192657;28;20317;-81
2023/02/19 09:28:20;;;;;;;4.43;1.30;;;;;;;;;;6190880;28;20289;-81
2023/02/19 09:31:25;;;;;;;1.30;1.30;;;;;;;;;;6189680;28;20617;-83
2023/02/19 09:34:31;;;;;;;2.17;1.67;;;;;;;;;;6192185;28;20543;-84
2023/02/19 09:37:42;;;;;;;3.13;2.00;;;;;;;;;;6191085;28;20305;-84
2023/02/19 09:40:48;;;;;;;2.43;1.60;;;;;;;;;;6191655;28;20301;-83
2023/02/19 09:43:53;;;;;;;2.73;2.33;;;;;;;;;;6189119;28;20324;-83
2023/02/19 09:47:01;;;;;;;3.40;1.60;;;;;;;;;;6190186;28;20297;-82
2023/02/19 09:50:09;;;;;;;3.47;1.27;;;;;;;;;;6191025;28;20293;-81
2023/02/19 09:53:20;;;;;;;3.80;1.93;;;;;;;;;;6187906;28;20293;-80
2023/02/19 09:56:27;;;;;;;4.90;1.10;;;;;;;;;;6189798;28;20295;-81
2023/02/19 09:59:40;;;;;;;52.30;18.47;;;;;;;;;;6189816;28;20586;-82
2023/02/19 10:02:46;;;;;;;4.80;1.77;;;;;;;;;;6188546;28;20299;-83
2023/02/19 10:05:51;;;;;;;3.03;1.17;;;;;;;;;;6189335;28;20298;-80
2023/02/19 10:09:05;;;;;;;2.40;0.90;;;;;;;;;;6188502;28;20490;-82
2023/02/19 10:12:16;;;;;;;1.10;1.10;;;;;;;;;;6192566;28;20286;-81
2023/02/19 10:15:25;;;;;;;4.03;1.20;;;;;;;;;;6189096;28;20300;-82
2023/02/19 10:18:38;;;;;;;1.13;1.13;;;;;;;;;;6190008;28;20294;-83
2023/02/19 10:21:43;;;;;;;0.97;0.97;;;;;;;;;;6189791;28;20295;-81
2023/02/19 10:24:52;;;;;;;3.70;1.50;;;;;;;;;;6189338;28;20307;-85
2023/02/19 10:27:59;;;;;;;1.90;1.00;;;;;;;;;;6188812;28;20301;-77
2023/02/19 10:31:05;;;;;;;1.80;1.20;;;;;;;;;;6189807;28;20298;-78
2023/02/19 10:34:20;;;;;;;4.57;1.67;;;;;;;;;;6189875;28;20328;-83
2023/02/19 10:37:28;;;;;;;2.67;1.23;;;;;;;;;;6188568;28;20479;-79
2023/02/19 10:40:34;;;;;;;1.00;1.00;;;;;;;;;;6186946;28;20304;-80
2023/02/19 10:43:44;;;;;;;2.13;1.00;;;;;;;;;;6188314;28;20297;-80
2023/02/19 10:46:54;;;;;;;4.80;1.70;;;;;;;;;;6188709;28;20293;-77
2023/02/19 10:49:59;;;;;;;2.60;2.40;;;;;;;;;;6188165;28;20301;-78
2023/02/19 10:53:20;;;;;;;1.40;1.27;;;;;;;;;;6188620;28;20301;-78
2023/02/19 10:56:30;;;;;;;3.40;1.30;;;;;;;;;;6188672;28;20294;-82
2023/02/19 10:59:36;;;;;;;2.47;1.50;;;;;;;;;;6186585;28;20298;-81
2023/02/19 11:02:50;;;;;;;2.13;1.00;;;;;;;;;;6189540;28;20303;-82
2023/02/19 11:06:02;;;;;;;1.30;1.30;;;;;;;;;;6188960;28;20299;-77
2023/02/19 11:09:24;;;;;;;2.63;0.93;;;;;;;;;;6188144;28;20286;-78
2023/02/19 11:12:33;;;;;;;4.30;1.40;;;;;;;;;;6206085;28;20290;-82
2023/02/19 11:15:38;;;;;;;3.87;1.20;;;;;;;;;;6212815;28;20297;-82
2023/02/19 11:18:44;;;;;;;2.87;2.67;;;;;;;;;;6228945;28;20319;-84
2023/02/19 11:21:59;;;;;;;1.13;1.13;;;;;;;;;;6212426;28;20315;-81
2023/02/19 11:25:08;;;;;;;1.70;1.10;;;;;;;;;;6211884;28;20488;-81
2023/02/19 11:28:27;;;;;;;1.03;1.03;;;;;;;;;;6214506;28;20307;-83
2023/02/19 11:31:36;;;;;;;3.03;1.53;;;;;;;;;;6220098;28;20292;-83
2023/02/19 11:34:42;;;;;;;2.57;1.03;;;;;;;;;;6215402;28;20304;-83
2023/02/19 11:37:58;;;;;;;2.33;1.23;;;;;;;;;;6213875;28;20294;-81
2023/02/19 11:41:09;;;;;;;2.07;1.90;;;;;;;;;;6212683;28;20298;-80
2023/02/19 11:44:29;;;;;;;3.00;0.90;;;;;;;;;;6209553;28;20297;-81
2023/02/19 11:48:04;;;;;;;1.23;1.13;;;;;;;;;;6211067;28;20294;-79
2023/02/19 11:51:31;;;;;;;1.13;0.80;;;;;;;;;;6210433;28;20287;-77
2023/02/19 11:54:49;;;;;;;1.27;1.23;;;;;;;;;;6210342;28;20297;-81
2023/02/19 11:58:06;;;;;;;5.40;1.00;;;;;;;;;;6210001;28;20302;-79
2023/02/19 12:01:22;;;;;;;1.00;0.90;;;;;;;;;;6210369;28;20290;-84
2023/02/19 12:04:59;;;;;;;7.30;1.00;;;;;;;;;;6210623;28;20553;-79
2023/02/19 12:08:27;;;;;;;2.07;1.30;;;;;;;;;;6207341;28;20309;-78
2023/02/19 12:11:45;;;;;;;2.97;1.50;;;;;;;;;;6207137;28;20572;-80
2023/02/19 12:15:18;;;;;;;1.70;1.60;;;;;;;;;;6191968;28;20623;-77
2023/02/19 12:18:50;;;;;;;1.40;1.30;;;;;;;;;;6208833;28;20363;-77
2023/02/19 12:22:20;;;;;;;1.60;0.70;;;;;;;;;;6209094;28;20383;-78
2023/02/19 12:25:43;;;;;;;1.33;1.33;;;;;;;;;;6208975;28;20302;-77
2023/02/19 12:29:04;;;;;;;1.53;1.47;;;;;;;;;;6210360;28;20301;-77
2023/02/19 12:32:41;;;;;;;1.00;1.00;;;;;;;;;;6211414;28;20309;-77
2023/02/19 12:35:52;;;;;;;1.10;0.90;;;;;;;;;;6208442;28;20304;-77
2023/02/19 12:39:03;;;;;;;2.57;1.03;;;;;;;;;;6209921;28;20298;-80
2023/02/19 12:42:28;;;;;;;0.90;0.90;;;;;;;;;;6210723;28;20569;-80
2023/02/19 12:45:37;;;;;;;0.80;0.80;;;;;;;;;;6209886;28;20667;-76
2023/02/19 12:48:47;;;;;;;1.30;1.30;;;;;;;;;;6210138;28;20293;-80
2023/02/19 12:51:56;;;;;;;0.90;0.90;;;;;;;;;;6210509;28;20310;-82
2023/02/19 12:55:13;;;;;;;1.03;1.00;;;;;;;;;;6224757;28;20297;-81
2023/02/19 12:58:25;;;;;;;1.80;1.27;;;;;;;;;;6224110;28;20299;-80
2023/02/19 13:01:44;;;;;;;1.70;1.70;;;;;;;;;;6210817;28;20304;-79
2023/02/19 13:04:54;;;;;;;2.33;1.23;;;;;;;;;;6209650;28;20311;-83
2023/02/19 13:08:04;;;;;;;1.33;0.83;;;;;;;;;;6213851;28;20537;-82
2023/02/19 13:11:14;;;;;;;1.10;1.10;;;;;;;;;;6211690;28;20297;-79
2023/02/19 13:14:24;;;;;;;1.53;1.50;;;;;;;;;;6215782;28;20301;-83
2023/02/19 13:17:36;;;;;;;6.93;1.90;;;;;;;;;;6216666;28;20285;-85
2023/02/19 13:20:43;;;;;;;13.87;1.70;;;;;;;;;;6214493;28;20292;-85
2023/02/19 13:23:58;;;;;;;6.20;1.57;;;;;;;;;;6229076;28;20297;-83
2023/02/19 13:27:13;;;;;;;1.13;1.13;;;;;;;;;;6215059;28;20582;-79
2023/02/19 13:30:33;;;;;;;2.63;1.07;;;;;;;;;;6214022;28;20289;-83
2023/02/19 13:33:46;;;;;;;3.00;0.73;;;;;;;;;;6212738;28;20293;-81
2023/02/19 13:36:51;;;;;;;0.57;0.57;;;;;;;;;;6229971;28;20298;-78
2023/02/19 13:40:02;;;;;;;0.70;0.70;;;;;;;;;;6213836;28;20297;-74
2023/02/19 13:43:25;;;;;;;2.50;1.30;;;;;;;;;;6213593;28;20289;-78
2023/02/19 13:46:37;;;;;;;2.13;0.93;;;;;;;;;;6213237;28;20298;-78
2023/02/19 13:49:42;;;;;;;4.47;1.20;;;;;;;;;;6213628;28;20297;-77
2023/02/19 13:52:49;;;;;;;0.73;0.73;;;;;;;;;;6228602;28;20293;-77
2023/02/19 13:55:56;;;;;;;0.93;0.93;;;;;;;;;;6214878;28;20301;-76
2023/02/19 13:59:28;;;;;;;1.00;1.00;;;;;;;;;;6228792;28;20299;-77
2023/02/19 14:02:35;;;;;;;0.90;0.90;;;;;;;;;;6212805;28;20301;-79
2023/02/19 14:06:01;;;;;;;1.03;1.00;;;;;;;;;;6212691;28;20273;-77
2023/02/19 14:09:46;;;;;;;1.73;1.07;;;;;;;;;;6212895;28;20281;-77
2023/02/19 14:12:53;;;;;;;1.10;1.10;;;;;;;;;;6188025;28;20305;-77
2023/02/19 14:15:59;;;;;;;1.83;1.13;;;;;;;;;;6187925;28;20306;-77
2023/02/19 14:19:04;;;;;;;1.93;1.70;;;;;;;;;;6187353;28;20482;-77
2023/02/19 14:23:03;;;;;;;1.20;1.20;;;;;;;;;;6188149;28;20300;-77
2023/02/19 14:26:09;;;;;;;3.50;1.50;;;;;;;;;;6189076;28;20293;-79
2023/02/19 14:29:16;;;;;;;1.20;1.20;;;;;;;;;;6188750;28;20303;-79
2023/02/19 14:32:21;;;;;;;1.30;1.30;;;;;;;;;;6189573;28;20588;-78
2023/02/19 14:35:31;;;;;;;1.73;1.30;;;;;;;;;;6194970;28;20590;-78
2023/02/19 14:38:38;;;;;;;1.00;1.00;;;;;;;;;;6188475;28;20301;-78
2023/02/19 14:41:46;;;;;;;2.10;1.07;;;;;;;;;;6188453;28;20371;-81
2023/02/19 14:45:08;;;;;;;1.23;0.60;;;;;;;;;;6191858;28;20299;-79
2023/02/19 14:48:40;;;;;;;2.27;0.90;;;;;;;;;;6190304;28;20302;-82
2023/02/19 14:51:48;;;;;;;1.30;1.00;;;;;;;;;;6187728;28;20325;-78
2023/02/19 14:54:55;;;;;;;1.20;0.77;;;;;;;;;;6203303;28;20479;-76
2023/02/19 14:58:03;;;;;;;1.07;0.93;;;;;;;;;;6187334;28;20465;-80
2023/02/19 15:01:26;;;;;;;2.37;0.80;;;;;;;;;;6191191;28;20486;-81
2023/02/19 15:04:35;;;;;;;1.53;1.10;;;;;;;;;;6188527;28;20304;-78
2023/02/19 15:07:42;;;;;;;2.80;0.73;;;;;;;;;;6187900;28;20299;-79
2023/02/19 15:10:48;;;;;;;3.17;0.97;;;;;;;;;;6191633;28;20583;-79
2023/02/19 15:13:56;;;;;;;1.23;1.10;;;;;;;;;;6188877;28;20297;-81
2023/02/19 15:17:04;;;;;;;3.13;1.17;;;;;;;;;;6187398;28;20297;-82
2023/02/19 15:20:12;;;;;;;3.30;1.73;;;;;;;;;;6188280;28;20304;-81
2023/02/19 15:23:22;;;;;;;1.70;1.10;;;;;;;;;;6188214;28;20293;-80
2023/02/19 15:26:33;;;;;;;1.27;1.20;;;;;;;;;;6188701;28;20491;-81
2023/02/19 15:29:46;;;;;;;1.40;1.30;;;;;;;;;;6186588;28;20297;-80
2023/02/19 15:32:57;;;;;;;2.13;0.83;;;;;;;;;;6187470;28;20324;-83
2023/02/19 15:36:08;;;;;;;1.40;1.40;;;;;;;;;;6186305;28;20318;-81
2023/02/19 15:39:19;;;;;;;1.33;1.30;;;;;;;;;;6187401;28;20477;-80
2023/02/19 15:42:27;;;;;;;4.10;1.10;;;;;;;;;;6187901;28;20290;-84
2023/02/19 15:45:40;;;;;;;3.70;0.90;;;;;;;;;;6186179;28;20567;-83
2023/02/19 15:48:50;;;;;;;1.00;1.00;;;;;;;;;;6188681;28;20298;-81
2023/02/19 15:51:59;;;;;;;1.70;0.90;;;;;;;;;;6198051;28;20300;-81
2023/02/19 15:55:11;;;;;;;2.23;0.80;;;;;;;;;;6196497;28;20298;-78
2023/02/19 15:58:20;;;;;;;0.80;0.80;;;;;;;;;;6202576;28;20248;-81
2023/02/19 16:01:27;;;;;;;0.83;0.83;;;;;;;;;;6202526;28;20262;-82
2023/02/19 16:04:36;;;;;;;1.30;1.20;;;;;;;;;;6197041;28;20303;-82
2023/02/19 16:07:42;;;;;;;9.90;1.20;;;;;;;;;;6188448;28;20296;-82
2023/02/19 16:10:55;;;;;;;3.03;0.90;;;;;;;;;;6190735;28;20289;-83
2023/02/19 16:14:22;;;;;;;2.00;0.80;;;;;;;;;;6189345;28;20306;-82
2023/02/19 16:17:27;;;;;;;1.67;1.00;;;;;;;;;;6188491;28;20296;-84
2023/02/19 16:20:35;;;;;;;2.80;0.80;;;;;;;;;;6186475;28;20323;-88
2023/02/19 16:23:43;;;;;;;1.10;1.00;;;;;;;;;;6186137;28;20346;-84
2023/02/19 16:26:49;;;;;;;2.30;2.20;;;;;;;;;;6186404;28;20296;-81
2023/02/19 16:29:56;;;;;;;2.47;1.40;;;;;;;;;;6185455;28;20304;-81
2023/02/19 16:33:21;;;;;;;4.33;1.00;;;;;;;;;;6186119;28;20291;-80
2023/02/19 16:36:40;;;;;;;1.67;1.57;;;;;;;;;;6169611;28;20310;-82
2023/02/19 16:39:45;;;;;;;1.43;1.33;;;;;;;;;;6188113;28;20438;-81
2023/02/19 16:43:25;;;;;;;4.43;1.40;;;;;;;;;;6193022;28;20577;-85
2023/02/19 16:46:30;;;;;;;9.10;1.40;;;;;;;;;;6192585;28;20296;-83
2023/02/19 16:49:35;;;;;;;1.00;1.00;;;;;;;;;;6192712;28;20305;-83
2023/02/19 16:52:53;;;;;;;0.90;0.90;;;;;;;;;;6193185;28;20301;-84
2023/02/19 16:55:58;;;;;;;2.47;1.10;;;;;;;;;;6194852;28;20408;-83
2023/02/19 16:59:05;;;;;;;6.90;1.20;;;;;;;;;;6192531;28;20292;-81
2023/02/19 17:02:16;;;;;;;0.97;0.97;;;;;;;;;;6191794;28;20308;-81
2023/02/19 17:05:23;;;;;;;3.00;1.07;;;;;;;;;;6194501;28;20317;-82
2023/02/19 17:08:35;;;;;;;2.50;1.30;;;;;;;;;;6199124;28;20291;-79
2023/02/19 17:11:41;;;;;;;1.10;1.00;;;;;;;;;;6200984;28;20277;-80
2023/02/19 17:14:46;;;;;;;4.40;1.00;;;;;;;;;;6208026;28;20298;-80
2023/02/19 17:17:52;;;;;;;1.63;1.37;;;;;;;;;;6190355;28;20282;-82
2023/02/19 17:21:02;;;;;;;3.83;1.20;;;;;;;;;;6190561;28;20345;-81
2023/02/19 17:24:09;;;;;;;1.27;1.23;;;;;;;;;;6190407;28;20580;-81
2023/02/19 17:27:18;;;;;;;1.70;0.93;;;;;;;;;;6204951;28;20302;-84
2023/02/19 17:30:28;;;;;;;1.20;1.20;;;;;;;;;;6191842;28;20409;-86
2023/02/19 17:33:34;;;;;;;1.03;1.03;;;;;;;;;;6189582;28;20341;-81
2023/02/19 17:36:41;;;;;;;2.60;1.00;;;;;;;;;;6189049;28;20293;-82
2023/02/19 17:39:47;;;;;;;1.23;1.23;;;;;;;;;;6189475;28;20296;-80
2023/02/19 17:43:03;;;;;;;2.60;2.00;;;;;;;;;;6189798;28;20438;-78
2023/02/19 17:46:15;;;;;;;3.57;1.70;;;;;;;;;;6190210;28;20434;-82
2023/02/19 17:49:20;;;;;;;1.20;1.20;;;;;;;;;;6188343;28;20667;-81
2023/02/19 17:52:28;;;;;;;1.27;1.13;;;;;;;;;;6187617;28;20306;-82
2023/02/19 17:55:35;;;;;;;3.27;0.93;;;;;;;;;;6188395;28;20300;-81
2023/02/19 17:58:40;;;;;;;2.73;1.00;;;;;;;;;;6189466;28;20613;-81
2023/02/19 18:01:48;;;;;;;1.47;1.40;;;;;;;;;;6190532;28;20624;-82
2023/02/19 18:04:53;;;;;;;5.53;1.00;;;;;;;;;;6189389;28;20297;-81
2023/02/19 18:07:59;;;;;;;3.07;1.60;;;;;;;;;;6189230;28;20289;-82
2023/02/19 18:11:06;;;;;;;1.43;1.40;;;;;;;;;;6191694;28;20361;-80
2023/02/19 18:14:12;;;;;;;1.40;1.30;;;;;;;;;;6189264;28;20376;-81
2023/02/19 18:17:17;;;;;;;1.00;1.00;;;;;;;;;;6190143;28;20305;-82
2023/02/19 18:20:24;;;;;;;2.67;1.03;;;;;;;;;;6187902;28;20298;-83
2023/02/19 18:23:30;;;;;;;0.83;0.83;;;;;;;;;;6189043;28;20291;-82
2023/02/19 18:26:36;;;;;;;2.40;1.00;;;;;;;;;;6187887;28;20297;-82
2023/02/19 18:29:41;;;;;;;0.97;0.97;;;;;;;;;;6187772;28;20297;-82
2023/02/19 18:32:47;;;;;;;0.93;0.93;;;;;;;;;;6203477;28;20268;-83
2023/02/19 18:35:52;;;;;;;1.23;0.80;;;;;;;;;;6189314;28;20276;-81
2023/02/19 18:38:58;;;;;;;4.00;1.27;;;;;;;;;;6189072;28;20291;-80
2023/02/19 18:42:05;;;;;;;3.50;1.07;;;;;;;;;;6189294;28;20304;-82
2023/02/19 18:45:11;;;;;;;1.17;1.03;;;;;;;;;;6188948;28;20293;-82
2023/02/19 18:48:17;;;;;;;2.07;1.57;;;;;;;;;;6184658;28;20292;-81
2023/02/19 18:51:23;;;;;;;2.20;2.20;;;;;;;;;;6187057;28;20288;-82
2023/02/19 18:54:29;;;;;;;2.40;1.13;;;;;;;;;;6188445;28;20305;-82
2023/02/19 18:57:35;;;;;;;9.57;1.50;;;;;;;;;;6202842;28;20489;-81
2023/02/19 19:00:41;;;;;;;2.00;1.10;;;;;;;;;;6188940;28;20481;-82
2023/02/19 19:03:48;;;;;;;2.73;1.20;;;;;;;;;;6187081;28;20300;-81
2023/02/19 19:06:53;;;;;;;1.30;1.30;;;;;;;;;;6186729;28;20314;-82
2023/02/19 19:09:58;;;;;;;0.90;0.90;;;;;;;;;;6189632;28;20298;-81
2023/02/19 19:13:05;;;;;;;1.10;1.10;;;;;;;;;;6187776;28;20295;-81
2023/02/19 19:16:13;;;;;;;0.90;0.90;;;;;;;;;;6170434;28;20273;-81
2023/02/19 19:19:19;;;;;;;1.13;1.13;;;;;;;;;;6188401;28;20292;-82
2023/02/19 19:22:25;;;;;;;1.80;0.90;;;;;;;;;;6191209;28;20293;-82
2023/02/19 19:25:33;;;;;;;1.07;1.00;;;;;;;;;;6211573;28;20292;-82
2023/02/19 19:28:43;;;;;;;2.30;1.20;;;;;;;;;;6196557;28;20305;-82
2023/02/19 19:31:48;;;;;;;2.93;0.80;;;;;;;;;;6200422;28;20325;-82